createdAt,value
2024-03-02T00:01:04.506Z,90.32
2024-03-02T00:06:01.221Z,89.66
2024-03-02T00:10:58.902Z,90.39
2024-03-02T00:15:56.847Z,90.04
2024-03-02T00:20:57.222Z,89.21
2024-03-02T00:25:54.446Z,91.32
2024-03-02T00:31:04.467Z,91.31
2024-03-02T00:36:01.767Z,92.42
2024-03-02T00:40:59.865Z,92.51
2024-03-02T00:45:56.469Z,92.65
2024-03-02T00:50:53.787Z,92.65
2024-03-02T00:55:50.490Z,92.47
2024-03-02T01:00:47.119Z,91.27
2024-03-02T01:05:43.844Z,93.12
2024-03-02T01:10:41.205Z,94.21
2024-03-02T01:15:37.955Z,92.74
2024-03-02T01:20:34.570Z,92.33
2024-03-02T01:25:31.190Z,94.33
2024-03-02T01:30:28.396Z,93.94
2024-03-02T01:35:25.561Z,93.82
2024-03-02T01:40:22.108Z,95.47
2024-03-02T01:45:19.078Z,95.60
2024-03-02T01:50:16.382Z,95.43
2024-03-02T01:55:12.920Z,93.07
2024-03-02T02:00:10.296Z,94.04
2024-03-02T02:05:10.285Z,94.56
2024-03-02T02:10:07.974Z,93.78
2024-03-02T02:15:04.877Z,92.06
2024-03-02T02:20:01.454Z,93.77
2024-03-02T02:24:58.840Z,92.52
2024-03-02T02:29:56.632Z,93.43
2024-03-02T02:34:53.297Z,94.30
2024-03-02T02:39:49.936Z,94.41
2024-03-02T02:44:47.201Z,95.49
2024-03-02T02:49:43.885Z,95.75
2024-03-02T02:54:40.646Z,95.58
2024-03-02T02:59:37.689Z,95.64
2024-03-02T03:04:34.979Z,95.99
2024-03-02T03:09:31.686Z,95.24
2024-03-02T03:14:28.372Z,95.49
2024-03-02T03:19:24.923Z,94.07
2024-03-02T03:24:22.231Z,95.37
2024-03-02T03:29:18.798Z,95.25
2024-03-02T03:34:18.147Z,93.88
2024-03-02T03:39:14.809Z,95.42
2024-03-02T03:44:11.966Z,95.58
2024-03-02T03:49:08.862Z,95.77
2024-03-02T03:54:05.545Z,94.66
2024-03-02T03:59:02.218Z,94.08
2024-03-02T04:03:59.451Z,94.04
2024-03-02T04:08:56.176Z,93.81
2024-03-02T04:13:54.230Z,92.98
2024-03-02T04:18:51.381Z,91.34
2024-03-02T04:23:48.664Z,92.98
2024-03-02T04:28:47.457Z,93.39
2024-03-02T04:33:44.084Z,90.97
2024-03-02T04:38:40.664Z,91.37
2024-03-02T04:43:37.937Z,92.67
2024-03-02T04:48:34.991Z,89.82
2024-03-02T04:53:31.659Z,92.03
2024-03-02T04:58:28.305Z,93.07
2024-03-02T05:03:25.497Z,93.09
2024-03-02T05:08:22.247Z,91.33
2024-03-02T05:13:18.946Z,92.50
2024-03-02T05:18:15.535Z,92.73
2024-03-02T05:23:12.797Z,92.02
2024-03-02T05:28:09.427Z,92.01
2024-03-02T05:33:06.114Z,92.92
2024-03-02T05:38:02.768Z,93.49
2024-03-02T05:43:00.064Z,93.59
2024-03-02T05:47:56.745Z,94.04
2024-03-02T05:52:53.366Z,93.81
2024-03-02T05:58:02.945Z,93.72
2024-03-02T06:03:00.220Z,94.10
2024-03-02T06:07:56.859Z,94.00
2024-03-02T06:12:53.462Z,93.99
2024-03-02T06:17:50.040Z,94.32
2024-03-02T06:22:47.441Z,93.88
2024-03-02T06:27:44.143Z,92.54
2024-03-02T06:32:40.827Z,91.47
2024-03-02T06:37:37.443Z,90.77
2024-03-02T06:42:35.072Z,90.37
2024-03-02T06:47:31.862Z,90.02
2024-03-02T06:52:28.509Z,88.05
2024-03-02T06:57:25.330Z,88.71
2024-03-02T07:02:23.426Z,88.44
2024-03-02T07:07:20.245Z,88.79
2024-03-02T07:12:16.970Z,89.05
2024-03-02T07:17:13.682Z,88.80
2024-03-02T07:22:11.232Z,87.40
2024-03-02T07:27:07.830Z,88.45
2024-03-02T07:32:04.744Z,89.18
2024-03-02T07:37:01.720Z,89.51
2024-03-02T07:41:59.050Z,89.58
2024-03-02T07:46:55.663Z,88.64
2024-03-02T07:51:52.327Z,87.78
2024-03-02T07:56:48.998Z,87.96
2024-03-02T08:01:46.389Z,86.41
2024-03-02T08:06:43.083Z,84.98
2024-03-02T08:11:39.827Z,85.69
2024-03-02T08:16:36.539Z,86.24
2024-03-02T08:21:35.762Z,86.98
2024-03-02T08:26:32.374Z,87.48
2024-03-02T08:31:28.938Z,85.89
2024-03-02T08:36:25.753Z,85.42
2024-03-02T08:41:23.030Z,83.36
2024-03-02T08:46:19.594Z,84.56
2024-03-02T08:51:16.219Z,84.71
2024-03-02T08:56:13.441Z,83.82
2024-03-02T09:01:10.850Z,82.87
2024-03-02T09:06:07.476Z,83.55
2024-03-02T09:11:04.361Z,84.25
2024-03-02T09:16:01.172Z,84.12
2024-03-02T09:20:58.464Z,84.22
2024-03-02T09:25:55.074Z,83.77
2024-03-02T09:30:51.756Z,83.10
2024-03-02T09:35:49.315Z,83.13
2024-03-02T09:40:46.638Z,82.99
2024-03-02T09:45:43.897Z,81.75
2024-03-02T09:50:40.486Z,81.30
2024-03-02T09:55:37.137Z,81.44
2024-03-02T10:00:34.625Z,81.38
2024-03-02T10:05:31.326Z,80.39
2024-03-02T10:10:35.059Z,81.50
2024-03-02T10:15:31.902Z,80.99
2024-03-02T10:20:29.904Z,80.80
2024-03-02T10:25:40.563Z,81.46
2024-03-02T10:30:44.319Z,81.26
2024-03-02T10:35:41.923Z,81.37
2024-03-02T10:40:38.478Z,80.44
2024-03-02T10:45:35.252Z,78.93
2024-03-02T10:50:32.362Z,79.56
2024-03-02T10:55:29.978Z,80.37
2024-03-02T11:00:30.682Z,81.29
2024-03-02T11:05:28.789Z,81.59
2024-03-02T11:10:26.245Z,80.01
2024-03-02T11:15:27.679Z,78.29
2024-03-02T11:20:25.194Z,78.29
2024-03-02T11:25:25.704Z,79.14
2024-03-02T11:30:38.170Z,80.05
2024-03-02T11:35:35.904Z,78.71
2024-03-02T11:40:32.729Z,78.43
2024-03-02T11:45:32.038Z,77.67
2024-03-02T11:50:29.908Z,77.62
2024-03-02T11:55:27.357Z,77.53
2024-03-02T12:00:24.125Z,77.73
2024-03-02T12:05:21.885Z,78.26
2024-03-02T12:10:20.124Z,77.82
2024-03-02T12:15:17.595Z,77.84
2024-03-02T12:20:14.231Z,78.12
2024-03-02T12:25:10.863Z,77.71
2024-03-02T12:30:11.165Z,77.23
2024-03-02T12:35:13.883Z,76.94
2024-03-02T12:40:12.020Z,76.94
2024-03-02T12:45:10.197Z,76.45
2024-03-02T12:50:07.431Z,75.71
2024-03-02T12:55:05.789Z,75.53
2024-03-02T13:00:09.266Z,75.01
2024-03-02T13:05:07.154Z,74.03
2024-03-02T13:10:04.996Z,73.53
2024-03-02T13:15:02.804Z,73.35
2024-03-02T13:20:00.023Z,72.99
2024-03-02T13:24:56.704Z,71.94
2024-03-02T13:29:55.189Z,70.49
2024-03-02T13:34:52.178Z,70.56
2024-03-02T13:39:49.278Z,70.09
2024-03-02T13:44:47.854Z,70.04
2024-03-02T13:49:47.147Z,69.96
2024-03-02T13:54:44.872Z,69.58
2024-03-02T13:59:41.993Z,68.89
2024-03-02T14:04:39.241Z,68.26
2024-03-02T14:09:36.950Z,67.46
2024-03-02T14:14:34.006Z,66.39
2024-03-02T14:19:31.278Z,65.98
2024-03-02T14:24:29.863Z,65.33
2024-03-02T14:29:27.428Z,65.65
2024-03-02T14:34:24.426Z,66.07
2024-03-02T14:39:21.229Z,66.05
2024-03-02T14:44:18.306Z,66.60
2024-03-02T14:49:15.788Z,66.11
2024-03-02T14:54:12.538Z,65.63
2024-03-02T14:59:09.400Z,65.26
2024-03-02T15:04:06.190Z,65.34
2024-03-02T15:09:04.035Z,64.83
2024-03-02T15:14:00.667Z,64.75
2024-03-02T15:18:57.552Z,63.45
2024-03-02T15:23:54.221Z,62.67
2024-03-02T15:28:52.060Z,62.04
2024-03-02T15:33:48.724Z,60.15
2024-03-02T15:38:45.569Z,59.75
2024-03-02T15:43:43.289Z,59.05
2024-03-02T15:48:40.958Z,58.47
2024-03-02T15:53:37.600Z,56.99
2024-03-02T15:58:36.485Z,57.04
2024-03-02T16:03:33.379Z,57.00
2024-03-02T16:08:33.119Z,56.58
2024-03-02T16:13:30.678Z,56.81
2024-03-02T16:18:27.257Z,57.11
2024-03-02T16:23:24.076Z,57.42
2024-03-02T16:28:21.740Z,58.43
2024-03-02T16:33:19.048Z,57.84
2024-03-02T16:38:15.728Z,58.75
2024-03-02T16:43:12.545Z,59.06
2024-03-02T16:48:09.922Z,59.75
2024-03-02T16:53:06.775Z,60.19
2024-03-02T16:58:03.552Z,59.36
2024-03-02T17:03:00.292Z,59.18
2024-03-02T17:07:58.702Z,59.25
2024-03-02T17:12:56.076Z,60.15
2024-03-02T17:17:52.942Z,60.45
2024-03-02T17:22:49.505Z,61.32
2024-03-02T17:27:46.846Z,63.29
2024-03-02T17:32:45.282Z,63.99
2024-03-02T17:37:41.871Z,63.08
2024-03-02T17:42:38.633Z,62.45
2024-03-02T17:47:36.061Z,62.28
2024-03-02T17:52:32.750Z,62.18
2024-03-02T17:57:29.635Z,61.39
2024-03-02T18:02:27.722Z,61.34
2024-03-02T18:07:25.061Z,60.91
2024-03-02T18:12:21.642Z,60.36
2024-03-02T18:17:19.088Z,59.80
2024-03-02T18:22:15.764Z,60.24
2024-03-02T18:27:13.149Z,59.97
2024-03-02T18:32:09.721Z,58.84
2024-03-02T18:37:06.367Z,58.78
2024-03-02T18:42:03.393Z,58.48
2024-03-02T18:47:00.629Z,58.33
2024-03-02T18:51:57.370Z,58.39
2024-03-02T18:56:54.299Z,58.67
2024-03-02T19:01:51.373Z,58.34
2024-03-02T19:06:49.032Z,59.07
2024-03-02T19:11:45.717Z,58.88
2024-03-02T19:16:44.530Z,59.68
2024-03-02T19:21:41.117Z,59.54
2024-03-02T19:26:38.389Z,60.35
2024-03-02T19:31:35.012Z,60.15
2024-03-02T19:36:31.634Z,60.37
2024-03-02T19:41:28.380Z,61.34
2024-03-02T19:46:25.632Z,60.64
2024-03-02T19:51:22.287Z,60.50
2024-03-02T19:56:39.215Z,60.01
2024-03-02T20:01:36.885Z,60.40
2024-03-02T20:06:33.655Z,60.40
2024-03-02T20:11:31.635Z,60.84
2024-03-02T20:16:28.374Z,60.52
2024-03-02T20:21:25.969Z,59.83
2024-03-02T20:26:22.783Z,59.99
2024-03-02T20:31:20.016Z,60.39
2024-03-02T20:36:16.823Z,60.09
2024-03-02T20:41:17.713Z,60.43
2024-03-02T20:46:15.097Z,60.44
2024-03-02T20:51:11.790Z,60.02
2024-03-02T20:56:08.458Z,59.72
2024-03-02T21:01:06.491Z,60.51
2024-03-02T21:06:05.416Z,62.81
2024-03-02T21:11:02.878Z,63.21
2024-03-02T21:15:59.499Z,63.80
2024-03-02T21:20:56.812Z,63.70
2024-03-02T21:25:53.450Z,65.05
2024-03-02T21:30:50.183Z,64.98
2024-03-02T21:35:46.768Z,64.80
2024-03-02T21:40:44.348Z,66.57
2024-03-02T21:45:40.924Z,65.94
2024-03-02T21:50:37.667Z,65.03
2024-03-02T21:55:34.224Z,65.08
2024-03-02T22:00:31.596Z,65.38
2024-03-02T22:05:29.215Z,64.86
2024-03-02T22:10:25.910Z,65.38
2024-03-02T22:15:22.547Z,66.89
2024-03-02T22:20:22.363Z,67.99
2024-03-02T22:25:19.128Z,66.97
2024-03-02T22:30:15.854Z,66.66
2024-03-02T22:35:12.462Z,66.15
2024-03-02T22:40:11.382Z,66.04
2024-03-02T22:45:08.428Z,66.33
2024-03-02T22:50:06.234Z,67.53
2024-03-02T22:55:02.894Z,68.06
2024-03-02T23:00:00.206Z,68.67
2024-03-02T23:04:56.764Z,71.42
2024-03-02T23:09:53.428Z,72.43
2024-03-02T23:14:50.235Z,71.62
2024-03-02T23:19:47.527Z,70.93
2024-03-02T23:24:44.160Z,69.89
2024-03-02T23:29:40.872Z,69.91
2024-03-02T23:34:38.527Z,71.79
2024-03-02T23:40:09.011Z,71.80
2024-03-02T23:45:06.056Z,71.95
2024-03-02T23:50:03.450Z,71.78
2024-03-02T23:55:00.975Z,72.24
2024-03-02T23:59:58.764Z,74.72
